sensor_id;sensor_type;location;lat;lon;timestamp;P1;durP1;ratioP1;P2;durP2;ratioP2
20649;SDS011;10484;48.736;9.332;2023-03-01T00:01:14;12.27;;;8.13;;
20649;SDS011;10484;48.736;9.332;2023-03-01T00:03:42;16.15;;;9.00;;
20649;SDS011;10484;48.736;9.332;2023-03-01T00:06:08;13.75;;;9.88;;
20649;SDS011;10484;48.736;9.332;2023-03-01T00:08:34;13.32;;;7.60;;
20649;SDS011;10484;48.736;9.332;2023-03-01T00:11:01;15.13;;;8.43;;
20649;SDS011;10484;48.736;9.332;2023-03-01T00:13:28;15.38;;;8.75;;
20649;SDS011;10484;48.736;9.332;2023-03-01T00:15:53;12.20;;;8.43;;
20649;SDS011;10484;48.736;9.332;2023-03-01T00:18:19;12.60;;;8.03;;
20649;SDS011;10484;48.736;9.332;2023-03-01T00:20:54;18.30;;;9.07;;
20649;SDS011;10484;48.736;9.332;2023-03-01T00:23:21;13.10;;;8.23;;
20649;SDS011;10484;48.736;9.332;2023-03-01T00:25:47;15.07;;;8.68;;
20649;SDS011;10484;48.736;9.332;2023-03-01T00:28:13;12.15;;;8.43;;
20649;SDS011;10484;48.736;9.332;2023-03-01T00:30:39;12.97;;;7.90;;
20649;SDS011;10484;48.736;9.332;2023-03-01T00:33:04;17.00;;;8.87;;
20649;SDS011;10484;48.736;9.332;2023-03-01T00:35:31;15.70;;;8.53;;
20649;SDS011;10484;48.736;9.332;2023-03-01T00:37:58;13.52;;;8.55;;
20649;SDS011;10484;48.736;9.332;2023-03-01T00:40:24;13.15;;;8.15;;
20649;SDS011;10484;48.736;9.332;2023-03-01T00:42:51;16.80;;;8.82;;
20649;SDS011;10484;48.736;9.332;2023-03-01T00:45:16;11.97;;;8.13;;
20649;SDS011;10484;48.736;9.332;2023-03-01T00:47:42;14.03;;;8.27;;
20649;SDS011;10484;48.736;9.332;2023-03-01T00:50:09;15.27;;;9.32;;
20649;SDS011;10484;48.736;9.332;2023-03-01T00:52:35;16.00;;;8.40;;
20649;SDS011;10484;48.736;9.332;2023-03-01T00:55:01;13.83;;;8.80;;
20649;SDS011;10484;48.736;9.332;2023-03-01T00:57:26;11.70;;;7.70;;
20649;SDS011;10484;48.736;9.332;2023-03-01T00:59:52;13.60;;;8.77;;
20649;SDS011;10484;48.736;9.332;2023-03-01T01:02:18;15.63;;;7.87;;
20649;SDS011;10484;48.736;9.332;2023-03-01T01:04:44;13.68;;;8.07;;
20649;SDS011;10484;48.736;9.332;2023-03-01T01:07:11;17.23;;;9.65;;
20649;SDS011;10484;48.736;9.332;2023-03-01T01:09:37;12.43;;;9.38;;
20649;SDS011;10484;48.736;9.332;2023-03-01T01:12:03;16.53;;;8.80;;
20649;SDS011;10484;48.736;9.332;2023-03-01T01:14:29;12.80;;;8.85;;
20649;SDS011;10484;48.736;9.332;2023-03-01T01:16:54;15.27;;;9.20;;
20649;SDS011;10484;48.736;9.332;2023-03-01T01:19:20;12.80;;;7.70;;
20649;SDS011;10484;48.736;9.332;2023-03-01T01:21:46;16.93;;;8.90;;
20649;SDS011;10484;48.736;9.332;2023-03-01T01:24:13;18.80;;;9.45;;
20649;SDS011;10484;48.736;9.332;2023-03-01T01:26:39;15.50;;;9.40;;
20649;SDS011;10484;48.736;9.332;2023-03-01T01:29:05;13.25;;;8.40;;
20649;SDS011;10484;48.736;9.332;2023-03-01T01:31:31;15.40;;;8.75;;
20649;SDS011;10484;48.736;9.332;2023-03-01T01:33:59;15.70;;;8.32;;
20649;SDS011;10484;48.736;9.332;2023-03-01T01:36:26;17.27;;;9.50;;
20649;SDS011;10484;48.736;9.332;2023-03-01T01:38:51;17.33;;;9.57;;
20649;SDS011;10484;48.736;9.332;2023-03-01T01:41:17;11.93;;;8.17;;
20649;SDS011;10484;48.736;9.332;2023-03-01T01:43:48;13.25;;;8.95;;
20649;SDS011;10484;48.736;9.332;2023-03-01T01:46:35;12.80;;;8.07;;
20649;SDS011;10484;48.736;9.332;2023-03-01T01:49:05;16.92;;;9.05;;
20649;SDS011;10484;48.736;9.332;2023-03-01T01:51:44;12.05;;;8.05;;
20649;SDS011;10484;48.736;9.332;2023-03-01T01:54:17;16.77;;;9.52;;
20649;SDS011;10484;48.736;9.332;2023-03-01T01:56:52;14.25;;;8.27;;
20649;SDS011;10484;48.736;9.332;2023-03-01T01:59:21;16.48;;;8.82;;
20649;SDS011;10484;48.736;9.332;2023-03-01T02:01:50;15.07;;;8.82;;
20649;SDS011;10484;48.736;9.332;2023-03-01T02:04:17;17.45;;;9.15;;
20649;SDS011;10484;48.736;9.332;2023-03-01T02:06:51;14.02;;;8.57;;
20649;SDS011;10484;48.736;9.332;2023-03-01T02:09:27;16.15;;;8.50;;
20649;SDS011;10484;48.736;9.332;2023-03-01T02:11:55;16.90;;;10.05;;
20649;SDS011;10484;48.736;9.332;2023-03-01T02:14:20;18.27;;;8.00;;
20649;SDS011;10484;48.736;9.332;2023-03-01T02:16:46;12.27;;;8.13;;
20649;SDS011;10484;48.736;9.332;2023-03-01T02:19:20;12.30;;;8.95;;
20649;SDS011;10484;48.736;9.332;2023-03-01T02:22:20;17.90;;;9.70;;
20649;SDS011;10484;48.736;9.332;2023-03-01T02:24:52;17.15;;;9.98;;
20649;SDS011;10484;48.736;9.332;2023-03-01T02:27:47;14.00;;;8.68;;
20649;SDS011;10484;48.736;9.332;2023-03-01T02:30:14;15.70;;;9.35;;
20649;SDS011;10484;48.736;9.332;2023-03-01T02:32:40;16.05;;;9.63;;
20649;SDS011;10484;48.736;9.332;2023-03-01T02:35:10;15.05;;;8.75;;
20649;SDS011;10484;48.736;9.332;2023-03-01T02:37:39;17.63;;;9.07;;
20649;SDS011;10484;48.736;9.332;2023-03-01T02:40:08;19.73;;;8.15;;
20649;SDS011;10484;48.736;9.332;2023-03-01T02:42:40;16.15;;;9.15;;
20649;SDS011;10484;48.736;9.332;2023-03-01T02:45:12;12.63;;;8.60;;
20649;SDS011;10484;48.736;9.332;2023-03-01T02:47:38;15.90;;;8.80;;
20649;SDS011;10484;48.736;9.332;2023-03-01T02:50:10;15.57;;;8.60;;
20649;SDS011;10484;48.736;9.332;2023-03-01T02:55:40;17.70;;;9.35;;
20649;SDS011;10484;48.736;9.332;2023-03-01T02:58:05;17.20;;;8.90;;
20649;SDS011;10484;48.736;9.332;2023-03-01T03:00:41;14.38;;;8.48;;
20649;SDS011;10484;48.736;9.332;2023-03-01T03:03:19;15.18;;;9.85;;
20649;SDS011;10484;48.736;9.332;2023-03-01T03:05:45;15.90;;;9.50;;
20649;SDS011;10484;48.736;9.332;2023-03-01T03:08:11;13.90;;;9.20;;
20649;SDS011;10484;48.736;9.332;2023-03-01T03:10:38;18.60;;;10.37;;
20649;SDS011;10484;48.736;9.332;2023-03-01T03:13:06;18.30;;;10.57;;
20649;SDS011;10484;48.736;9.332;2023-03-01T03:15:37;20.17;;;9.63;;
20649;SDS011;10484;48.736;9.332;2023-03-01T03:18:05;15.82;;;9.40;;
20649;SDS011;10484;48.736;9.332;2023-03-01T03:20:33;17.98;;;10.10;;
20649;SDS011;10484;48.736;9.332;2023-03-01T03:22:59;17.00;;;9.17;;
20649;SDS011;10484;48.736;9.332;2023-03-01T03:25:25;18.17;;;9.73;;
20649;SDS011;10484;48.736;9.332;2023-03-01T03:27:52;14.27;;;9.25;;
20649;SDS011;10484;48.736;9.332;2023-03-01T03:30:21;16.98;;;9.52;;
20649;SDS011;10484;48.736;9.332;2023-03-01T03:32:48;18.65;;;10.55;;
20649;SDS011;10484;48.736;9.332;2023-03-01T03:37:54;21.80;;;10.63;;
20649;SDS011;10484;48.736;9.332;2023-03-01T03:40:27;14.30;;;9.65;;
20649;SDS011;10484;48.736;9.332;2023-03-01T03:42:55;16.55;;;10.40;;
20649;SDS011;10484;48.736;9.332;2023-03-01T03:45:21;13.20;;;9.00;;
20649;SDS011;10484;48.736;9.332;2023-03-01T03:47:46;20.67;;;10.80;;
20649;SDS011;10484;48.736;9.332;2023-03-01T03:50:13;18.03;;;9.57;;
20649;SDS011;10484;48.736;9.332;2023-03-01T03:52:40;20.55;;;11.82;;
20649;SDS011;10484;48.736;9.332;2023-03-01T03:55:07;17.83;;;9.60;;
20649;SDS011;10484;48.736;9.332;2023-03-01T03:57:34;16.30;;;10.30;;
20649;SDS011;10484;48.736;9.332;2023-03-01T04:00:00;16.58;;;10.07;;
20649;SDS011;10484;48.736;9.332;2023-03-01T04:02:28;19.27;;;11.00;;
20649;SDS011;10484;48.736;9.332;2023-03-01T04:04:54;23.30;;;12.20;;
20649;SDS011;10484;48.736;9.332;2023-03-01T04:07:19;20.43;;;10.07;;
20649;SDS011;10484;48.736;9.332;2023-03-01T04:09:45;20.47;;;10.60;;
20649;SDS011;10484;48.736;9.332;2023-03-01T04:12:10;18.90;;;11.73;;
20649;SDS011;10484;48.736;9.332;2023-03-01T04:14:36;15.73;;;11.30;;
20649;SDS011;10484;48.736;9.332;2023-03-01T04:17:02;17.97;;;10.47;;
20649;SDS011;10484;48.736;9.332;2023-03-01T04:19:31;19.33;;;10.18;;
20649;SDS011;10484;48.736;9.332;2023-03-01T04:22:01;17.45;;;10.63;;
20649;SDS011;10484;48.736;9.332;2023-03-01T04:24:34;16.33;;;10.85;;
20649;SDS011;10484;48.736;9.332;2023-03-01T04:27:00;17.65;;;10.27;;
20649;SDS011;10484;48.736;9.332;2023-03-01T04:29:25;16.63;;;9.50;;
20649;SDS011;10484;48.736;9.332;2023-03-01T04:31:51;16.43;;;9.67;;
20649;SDS011;10484;48.736;9.332;2023-03-01T04:34:16;20.90;;;11.10;;
20649;SDS011;10484;48.736;9.332;2023-03-01T04:36:42;21.90;;;11.50;;
20649;SDS011;10484;48.736;9.332;2023-03-01T04:39:07;16.80;;;10.60;;
20649;SDS011;10484;48.736;9.332;2023-03-01T04:41:37;15.63;;;12.00;;
20649;SDS011;10484;48.736;9.332;2023-03-01T04:44:04;19.50;;;12.23;;
20649;SDS011;10484;48.736;9.332;2023-03-01T04:46:30;21.75;;;12.73;;
20649;SDS011;10484;48.736;9.332;2023-03-01T04:48:55;22.43;;;12.03;;
20649;SDS011;10484;48.736;9.332;2023-03-01T04:51:21;20.40;;;10.60;;
20649;SDS011;10484;48.736;9.332;2023-03-01T04:53:46;22.50;;;12.60;;
20649;SDS011;10484;48.736;9.332;2023-03-01T04:56:12;22.73;;;12.03;;
20649;SDS011;10484;48.736;9.332;2023-03-01T04:58:39;15.77;;;10.73;;
20649;SDS011;10484;48.736;9.332;2023-03-01T05:01:09;16.13;;;10.73;;
20649;SDS011;10484;48.736;9.332;2023-03-01T05:03:46;17.33;;;11.02;;
20649;SDS011;10484;48.736;9.332;2023-03-01T05:06:13;24.48;;;12.52;;
20649;SDS011;10484;48.736;9.332;2023-03-01T05:08:40;19.05;;;10.93;;
20649;SDS011;10484;48.736;9.332;2023-03-01T05:11:06;16.23;;;10.40;;
20649;SDS011;10484;48.736;9.332;2023-03-01T05:13:36;21.50;;;11.13;;
20649;SDS011;10484;48.736;9.332;2023-03-01T05:16:03;20.10;;;12.00;;
20649;SDS011;10484;48.736;9.332;2023-03-01T05:18:30;22.35;;;10.93;;
20649;SDS011;10484;48.736;9.332;2023-03-01T05:21:04;17.80;;;10.93;;
20649;SDS011;10484;48.736;9.332;2023-03-01T05:23:32;15.82;;;9.57;;
20649;SDS011;10484;48.736;9.332;2023-03-01T05:25:59;15.55;;;10.68;;
20649;SDS011;10484;48.736;9.332;2023-03-01T05:28:26;23.55;;;11.98;;
20649;SDS011;10484;48.736;9.332;2023-03-01T05:30:55;20.13;;;11.27;;
20649;SDS011;10484;48.736;9.332;2023-03-01T05:33:22;20.85;;;11.82;;
20649;SDS011;10484;48.736;9.332;2023-03-01T05:35:48;22.25;;;10.63;;
20649;SDS011;10484;48.736;9.332;2023-03-01T05:38:15;18.40;;;11.18;;
20649;SDS011;10484;48.736;9.332;2023-03-01T05:40:41;18.15;;;11.40;;
20649;SDS011;10484;48.736;9.332;2023-03-01T05:43:09;20.02;;;11.68;;
20649;SDS011;10484;48.736;9.332;2023-03-01T05:45:36;23.00;;;11.43;;
20649;SDS011;10484;48.736;9.332;2023-03-01T05:48:03;17.75;;;10.70;;
20649;SDS011;10484;48.736;9.332;2023-03-01T05:50:31;15.00;;;10.20;;
20649;SDS011;10484;48.736;9.332;2023-03-01T05:55:27;21.58;;;11.82;;
20649;SDS011;10484;48.736;9.332;2023-03-01T05:57:54;18.02;;;10.68;;
20649;SDS011;10484;48.736;9.332;2023-03-01T06:00:20;19.47;;;11.10;;
20649;SDS011;10484;48.736;9.332;2023-03-01T06:02:49;19.95;;;12.50;;
20649;SDS011;10484;48.736;9.332;2023-03-01T06:05:16;17.10;;;10.30;;
20649;SDS011;10484;48.736;9.332;2023-03-01T06:07:42;19.80;;;10.40;;
20649;SDS011;10484;48.736;9.332;2023-03-01T06:10:09;19.17;;;11.00;;
20649;SDS011;10484;48.736;9.332;2023-03-01T06:12:36;21.95;;;11.52;;
20649;SDS011;10484;48.736;9.332;2023-03-01T06:15:03;19.40;;;11.40;;
20649;SDS011;10484;48.736;9.332;2023-03-01T06:17:30;18.88;;;10.45;;
20649;SDS011;10484;48.736;9.332;2023-03-01T06:19:56;19.95;;;11.35;;
20649;SDS011;10484;48.736;9.332;2023-03-01T06:22:22;19.67;;;12.67;;
20649;SDS011;10484;48.736;9.332;2023-03-01T06:24:47;19.87;;;10.40;;
20649;SDS011;10484;48.736;9.332;2023-03-01T06:27:13;25.23;;;11.13;;
20649;SDS011;10484;48.736;9.332;2023-03-01T06:29:39;21.67;;;10.63;;
20649;SDS011;10484;48.736;9.332;2023-03-01T06:32:04;17.53;;;11.67;;
20649;SDS011;10484;48.736;9.332;2023-03-01T06:34:30;19.23;;;11.60;;
20649;SDS011;10484;48.736;9.332;2023-03-01T06:36:57;24.75;;;11.13;;
20649;SDS011;10484;48.736;9.332;2023-03-01T06:39:22;20.83;;;10.60;;
20649;SDS011;10484;48.736;9.332;2023-03-01T06:41:48;16.70;;;10.33;;
20649;SDS011;10484;48.736;9.332;2023-03-01T06:44:13;18.10;;;11.83;;
20649;SDS011;10484;48.736;9.332;2023-03-01T06:46:39;22.63;;;11.50;;
20649;SDS011;10484;48.736;9.332;2023-03-01T06:49:05;18.40;;;9.60;;
20649;SDS011;10484;48.736;9.332;2023-03-01T06:51:34;19.92;;;12.00;;
20649;SDS011;10484;48.736;9.332;2023-03-01T06:54:02;21.00;;;11.63;;
20649;SDS011;10484;48.736;9.332;2023-03-01T06:56:28;20.45;;;10.65;;
20649;SDS011;10484;48.736;9.332;2023-03-01T06:58:54;18.33;;;11.87;;
20649;SDS011;10484;48.736;9.332;2023-03-01T07:01:19;17.47;;;10.10;;
20649;SDS011;10484;48.736;9.332;2023-03-01T07:03:45;20.00;;;11.10;;
20649;SDS011;10484;48.736;9.332;2023-03-01T07:06:11;18.40;;;11.13;;
20649;SDS011;10484;48.736;9.332;2023-03-01T07:08:36;23.47;;;11.93;;
20649;SDS011;10484;48.736;9.332;2023-03-01T07:11:02;20.40;;;11.80;;
20649;SDS011;10484;48.736;9.332;2023-03-01T07:13:28;23.77;;;13.45;;
20649;SDS011;10484;48.736;9.332;2023-03-01T07:15:55;22.80;;;12.80;;
20649;SDS011;10484;48.736;9.332;2023-03-01T07:18:21;19.98;;;12.60;;
20649;SDS011;10484;48.736;9.332;2023-03-01T07:20:46;17.60;;;12.07;;
20649;SDS011;10484;48.736;9.332;2023-03-01T07:23:12;24.17;;;12.73;;
20649;SDS011;10484;48.736;9.332;2023-03-01T07:25:38;20.83;;;11.63;;
20649;SDS011;10484;48.736;9.332;2023-03-01T07:28:03;17.70;;;10.23;;
20649;SDS011;10484;48.736;9.332;2023-03-01T07:30:29;17.93;;;10.87;;
20649;SDS011;10484;48.736;9.332;2023-03-01T07:32:55;23.25;;;11.95;;
20649;SDS011;10484;48.736;9.332;2023-03-01T07:35:22;23.00;;;12.35;;
20649;SDS011;10484;48.736;9.332;2023-03-01T07:37:49;26.25;;;12.38;;
20649;SDS011;10484;48.736;9.332;2023-03-01T07:40:15;19.73;;;11.73;;
20649;SDS011;10484;48.736;9.332;2023-03-01T07:42:41;18.80;;;12.20;;
20649;SDS011;10484;48.736;9.332;2023-03-01T07:45:07;23.77;;;12.73;;
20649;SDS011;10484;48.736;9.332;2023-03-01T07:47:33;23.45;;;12.63;;
20649;SDS011;10484;48.736;9.332;2023-03-01T07:49:59;19.40;;;10.70;;
20649;SDS011;10484;48.736;9.332;2023-03-01T07:52:26;21.20;;;11.98;;
20649;SDS011;10484;48.736;9.332;2023-03-01T07:54:51;22.20;;;12.50;;
20649;SDS011;10484;48.736;9.332;2023-03-01T07:57:17;19.67;;;12.23;;
20649;SDS011;10484;48.736;9.332;2023-03-01T07:59:42;22.17;;;13.43;;
20649;SDS011;10484;48.736;9.332;2023-03-01T08:02:09;21.63;;;13.60;;
20649;SDS011;10484;48.736;9.332;2023-03-01T08:04:35;17.48;;;11.75;;
20649;SDS011;10484;48.736;9.332;2023-03-01T08:07:01;22.63;;;13.10;;
20649;SDS011;10484;48.736;9.332;2023-03-01T08:09:29;18.85;;;12.63;;
20649;SDS011;10484;48.736;9.332;2023-03-01T08:11:56;20.57;;;12.20;;
20649;SDS011;10484;48.736;9.332;2023-03-01T08:14:24;17.63;;;11.82;;
20649;SDS011;10484;48.736;9.332;2023-03-01T08:16:50;19.80;;;12.97;;
20649;SDS011;10484;48.736;9.332;2023-03-01T08:19:15;20.87;;;11.47;;
20649;SDS011;10484;48.736;9.332;2023-03-01T08:21:41;19.80;;;12.73;;
20649;SDS011;10484;48.736;9.332;2023-03-01T08:24:07;20.73;;;13.80;;
20649;SDS011;10484;48.736;9.332;2023-03-01T08:26:35;20.92;;;12.50;;
20649;SDS011;10484;48.736;9.332;2023-03-01T08:29:01;18.27;;;10.70;;
20649;SDS011;10484;48.736;9.332;2023-03-01T08:31:38;17.63;;;12.87;;
20649;SDS011;10484;48.736;9.332;2023-03-01T08:34:06;19.63;;;12.82;;
20649;SDS011;10484;48.736;9.332;2023-03-01T08:36:38;21.33;;;13.15;;
20649;SDS011;10484;48.736;9.332;2023-03-01T08:39:05;18.98;;;11.80;;
20649;SDS011;10484;48.736;9.332;2023-03-01T08:41:32;18.40;;;12.35;;
20649;SDS011;10484;48.736;9.332;2023-03-01T08:43:58;19.57;;;10.90;;
20649;SDS011;10484;48.736;9.332;2023-03-01T08:46:24;23.53;;;12.30;;
20649;SDS011;10484;48.736;9.332;2023-03-01T08:48:51;26.25;;;13.75;;
20649;SDS011;10484;48.736;9.332;2023-03-01T08:51:17;17.93;;;11.30;;
20649;SDS011;10484;48.736;9.332;2023-03-01T08:53:44;21.65;;;13.25;;
20649;SDS011;10484;48.736;9.332;2023-03-01T08:56:10;21.30;;;13.68;;
20649;SDS011;10484;48.736;9.332;2023-03-01T08:58:36;20.85;;;13.27;;
20649;SDS011;10484;48.736;9.332;2023-03-01T09:01:09;19.50;;;12.73;;
20649;SDS011;10484;48.736;9.332;2023-03-01T09:03:36;19.80;;;12.45;;
20649;SDS011;10484;48.736;9.332;2023-03-01T09:06:02;20.77;;;11.33;;
20649;SDS011;10484;48.736;9.332;2023-03-01T09:08:29;19.02;;;12.00;;
20649;SDS011;10484;48.736;9.332;2023-03-01T09:10:55;21.38;;;13.15;;
20649;SDS011;10484;48.736;9.332;2023-03-01T09:13:21;18.90;;;12.17;;
20649;SDS011;10484;48.736;9.332;2023-03-01T09:15:49;21.83;;;12.25;;
20649;SDS011;10484;48.736;9.332;2023-03-01T09:18:16;23.33;;;12.85;;
20649;SDS011;10484;48.736;9.332;2023-03-01T09:20:41;19.93;;;13.90;;
20649;SDS011;10484;48.736;9.332;2023-03-01T09:23:07;23.57;;;12.50;;
20649;SDS011;10484;48.736;9.332;2023-03-01T09:25:33;17.73;;;9.60;;
20649;SDS011;10484;48.736;9.332;2023-03-01T09:27:59;19.10;;;13.43;;
20649;SDS011;10484;48.736;9.332;2023-03-01T09:30:25;21.00;;;11.77;;
20649;SDS011;10484;48.736;9.332;2023-03-01T09:32:50;19.03;;;12.80;;
20649;SDS011;10484;48.736;9.332;2023-03-01T09:35:17;19.65;;;12.32;;
20649;SDS011;10484;48.736;9.332;2023-03-01T09:37:44;20.40;;;12.82;;
20649;SDS011;10484;48.736;9.332;2023-03-01T09:40:15;15.93;;;10.53;;
20649;SDS011;10484;48.736;9.332;2023-03-01T09:42:46;20.60;;;11.82;;
20649;SDS011;10484;48.736;9.332;2023-03-01T09:45:25;20.80;;;12.65;;
20649;SDS011;10484;48.736;9.332;2023-03-01T09:47:59;19.77;;;11.20;;
20649;SDS011;10484;48.736;9.332;2023-03-01T09:50:26;19.92;;;12.75;;
20649;SDS011;10484;48.736;9.332;2023-03-01T09:53:02;21.05;;;10.77;;
20649;SDS011;10484;48.736;9.332;2023-03-01T09:55:40;19.48;;;11.30;;
20649;SDS011;10484;48.736;9.332;2023-03-01T10:00:42;19.75;;;12.43;;
20649;SDS011;10484;48.736;9.332;2023-03-01T10:03:17;19.30;;;11.32;;
20649;SDS011;10484;48.736;9.332;2023-03-01T10:05:57;19.55;;;12.40;;
20649;SDS011;10484;48.736;9.332;2023-03-01T10:08:56;16.73;;;11.02;;
20649;SDS011;10484;48.736;9.332;2023-03-01T10:11:59;21.52;;;11.93;;
20649;SDS011;10484;48.736;9.332;2023-03-01T10:22:46;19.13;;;11.20;;
20649;SDS011;10484;48.736;9.332;2023-03-01T10:25:15;21.88;;;13.50;;
20649;SDS011;10484;48.736;9.332;2023-03-01T10:27:52;22.80;;;12.38;;
20649;SDS011;10484;48.736;9.332;2023-03-01T10:32:45;20.83;;;12.50;;
20649;SDS011;10484;48.736;9.332;2023-03-01T10:35:20;20.80;;;12.00;;
20649;SDS011;10484;48.736;9.332;2023-03-01T10:38:07;19.73;;;11.63;;
20649;SDS011;10484;48.736;9.332;2023-03-01T10:40:36;20.20;;;11.73;;
20649;SDS011;10484;48.736;9.332;2023-03-01T10:43:14;18.88;;;11.85;;
20649;SDS011;10484;48.736;9.332;2023-03-01T10:45:40;20.23;;;11.30;;
20649;SDS011;10484;48.736;9.332;2023-03-01T10:48:14;16.08;;;10.70;;
20649;SDS011;10484;48.736;9.332;2023-03-01T10:53:25;17.23;;;11.73;;
20649;SDS011;10484;48.736;9.332;2023-03-01T10:58:39;16.83;;;10.45;;
20649;SDS011;10484;48.736;9.332;2023-03-01T11:01:28;18.27;;;10.88;;
20649;SDS011;10484;48.736;9.332;2023-03-01T11:06:32;16.88;;;11.40;;
20649;SDS011;10484;48.736;9.332;2023-03-01T11:09:12;17.23;;;11.02;;
20649;SDS011;10484;48.736;9.332;2023-03-01T11:11:40;22.73;;;12.82;;
20649;SDS011;10484;48.736;9.332;2023-03-01T11:16:38;21.13;;;10.40;;
20649;SDS011;10484;48.736;9.332;2023-03-01T11:21:36;18.13;;;12.30;;
20649;SDS011;10484;48.736;9.332;2023-03-01T11:24:46;17.40;;;10.95;;
20649;SDS011;10484;48.736;9.332;2023-03-01T11:27:23;18.90;;;12.27;;
20649;SDS011;10484;48.736;9.332;2023-03-01T11:32:34;15.27;;;11.87;;
20649;SDS011;10484;48.736;9.332;2023-03-01T11:35:10;21.00;;;12.37;;
20649;SDS011;10484;48.736;9.332;2023-03-01T11:37:48;19.27;;;11.20;;
20649;SDS011;10484;48.736;9.332;2023-03-01T11:40:32;15.90;;;11.27;;
20649;SDS011;10484;48.736;9.332;2023-03-01T11:43:04;16.33;;;10.57;;
20649;SDS011;10484;48.736;9.332;2023-03-01T11:45:41;18.50;;;11.20;;
20649;SDS011;10484;48.736;9.332;2023-03-01T11:51:09;16.10;;;10.60;;
20649;SDS011;10484;48.736;9.332;2023-03-01T11:56:55;20.80;;;11.93;;
20649;SDS011;10484;48.736;9.332;2023-03-01T11:59:33;16.50;;;11.03;;
20649;SDS011;10484;48.736;9.332;2023-03-01T12:02:07;16.43;;;10.70;;
20649;SDS011;10484;48.736;9.332;2023-03-01T12:10:29;13.87;;;10.00;;
20649;SDS011;10484;48.736;9.332;2023-03-01T12:13:19;18.53;;;10.73;;
20649;SDS011;10484;48.736;9.332;2023-03-01T12:27:39;14.77;;;9.73;;
20649;SDS011;10484;48.736;9.332;2023-03-01T12:38:07;14.70;;;10.20;;
20649;SDS011;10484;48.736;9.332;2023-03-01T12:46:28;14.53;;;10.37;;
20649;SDS011;10484;48.736;9.332;2023-03-01T12:51:39;15.17;;;10.80;;
20649;SDS011;10484;48.736;9.332;2023-03-01T12:54:16;15.33;;;10.90;;
20649;SDS011;10484;48.736;9.332;2023-03-01T12:56:50;15.80;;;10.30;;
20649;SDS011;10484;48.736;9.332;2023-03-01T13:01:48;15.97;;;11.10;;
20649;SDS011;10484;48.736;9.332;2023-03-01T13:13:02;15.20;;;9.53;;
20649;SDS011;10484;48.736;9.332;2023-03-01T13:15:37;15.60;;;8.90;;
20649;SDS011;10484;48.736;9.332;2023-03-01T13:23:30;15.07;;;10.10;;
20649;SDS011;10484;48.736;9.332;2023-03-01T13:36:10;14.70;;;9.70;;
20649;SDS011;10484;48.736;9.332;2023-03-01T13:38:58;12.60;;;9.87;;
20649;SDS011;10484;48.736;9.332;2023-03-01T13:46:38;15.27;;;10.50;;
20649;SDS011;10484;48.736;9.332;2023-03-01T13:49:03;14.03;;;10.27;;
20649;SDS011;10484;48.736;9.332;2023-03-01T13:51:29;16.67;;;9.97;;
20649;SDS011;10484;48.736;9.332;2023-03-01T13:53:55;12.93;;;9.60;;
20649;SDS011;10484;48.736;9.332;2023-03-01T13:56:27;13.67;;;9.03;;
20649;SDS011;10484;48.736;9.332;2023-03-01T13:58:58;15.20;;;9.80;;
20649;SDS011;10484;48.736;9.332;2023-03-01T14:01:28;14.23;;;9.40;;
20649;SDS011;10484;48.736;9.332;2023-03-01T14:03:59;12.53;;;9.00;;
20649;SDS011;10484;48.736;9.332;2023-03-01T14:06:27;12.93;;;9.90;;
20649;SDS011;10484;48.736;9.332;2023-03-01T14:09:28;14.60;;;9.10;;
20649;SDS011;10484;48.736;9.332;2023-03-01T14:12:04;9.90;;;8.60;;
20649;SDS011;10484;48.736;9.332;2023-03-01T14:14:52;12.57;;;9.60;;
20649;SDS011;10484;48.736;9.332;2023-03-01T14:19:58;15.03;;;9.47;;
20649;SDS011;10484;48.736;9.332;2023-03-01T14:22:30;13.93;;;9.80;;
20649;SDS011;10484;48.736;9.332;2023-03-01T14:25:00;12.90;;;9.23;;
20649;SDS011;10484;48.736;9.332;2023-03-01T14:27:44;12.30;;;10.07;;
20649;SDS011;10484;48.736;9.332;2023-03-01T14:32:37;13.30;;;9.97;;
20649;SDS011;10484;48.736;9.332;2023-03-01T14:35:18;10.67;;;7.60;;
20649;SDS011;10484;48.736;9.332;2023-03-01T14:37:51;12.77;;;9.57;;
20649;SDS011;10484;48.736;9.332;2023-03-01T14:40:25;15.47;;;10.37;;
20649;SDS011;10484;48.736;9.332;2023-03-01T14:42:59;14.23;;;8.77;;
20649;SDS011;10484;48.736;9.332;2023-03-01T14:45:27;13.73;;;9.43;;
20649;SDS011;10484;48.736;9.332;2023-03-01T14:47:54;13.53;;;8.60;;
20649;SDS011;10484;48.736;9.332;2023-03-01T14:50:36;14.20;;;10.10;;
20649;SDS011;10484;48.736;9.332;2023-03-01T14:53:07;13.30;;;9.83;;
20649;SDS011;10484;48.736;9.332;2023-03-01T14:55:46;14.97;;;8.87;;
20649;SDS011;10484;48.736;9.332;2023-03-01T14:58:15;13.40;;;9.50;;
20649;SDS011;10484;48.736;9.332;2023-03-01T15:00:54;8.13;;;6.40;;
20649;SDS011;10484;48.736;9.332;2023-03-01T15:03:32;14.40;;;9.07;;
20649;SDS011;10484;48.736;9.332;2023-03-01T15:06:02;14.00;;;9.67;;
20649;SDS011;10484;48.736;9.332;2023-03-01T15:08:29;11.60;;;9.10;;
20649;SDS011;10484;48.736;9.332;2023-03-01T15:13:25;16.13;;;10.07;;
20649;SDS011;10484;48.736;9.332;2023-03-01T15:15:53;12.97;;;9.30;;
20649;SDS011;10484;48.736;9.332;2023-03-01T15:18:36;10.50;;;8.50;;
20649;SDS011;10484;48.736;9.332;2023-03-01T15:21:16;15.63;;;10.50;;
20649;SDS011;10484;48.736;9.332;2023-03-01T15:23:50;15.83;;;9.80;;
20649;SDS011;10484;48.736;9.332;2023-03-01T15:26:23;16.60;;;10.20;;
20649;SDS011;10484;48.736;9.332;2023-03-01T15:28:58;14.10;;;9.90;;
20649;SDS011;10484;48.736;9.332;2023-03-01T15:31:29;14.23;;;9.93;;
20649;SDS011;10484;48.736;9.332;2023-03-01T15:36:48;10.93;;;7.57;;
20649;SDS011;10484;48.736;9.332;2023-03-01T15:39:30;14.10;;;9.30;;
20649;SDS011;10484;48.736;9.332;2023-03-01T15:41:56;13.00;;;9.87;;
20649;SDS011;10484;48.736;9.332;2023-03-01T15:44:32;14.97;;;10.10;;
20649;SDS011;10484;48.736;9.332;2023-03-01T15:46:59;17.20;;;10.33;;
20649;SDS011;10484;48.736;9.332;2023-03-01T15:52:05;14.03;;;9.60;;
20649;SDS011;10484;48.736;9.332;2023-03-01T15:54:38;15.10;;;10.00;;
20649;SDS011;10484;48.736;9.332;2023-03-01T15:57:07;14.83;;;9.83;;
20649;SDS011;10484;48.736;9.332;2023-03-01T15:59:37;13.77;;;9.97;;
20649;SDS011;10484;48.736;9.332;2023-03-01T16:02:07;11.80;;;9.07;;
20649;SDS011;10484;48.736;9.332;2023-03-01T16:04:34;13.67;;;9.50;;
20649;SDS011;10484;48.736;9.332;2023-03-01T16:06:59;13.70;;;9.53;;
20649;SDS011;10484;48.736;9.332;2023-03-01T16:09:26;15.50;;;10.50;;
20649;SDS011;10484;48.736;9.332;2023-03-01T16:11:52;16.93;;;10.03;;
20649;SDS011;10484;48.736;9.332;2023-03-01T16:14:18;14.53;;;10.20;;
20649;SDS011;10484;48.736;9.332;2023-03-01T16:16:45;16.37;;;11.97;;
20649;SDS011;10484;48.736;9.332;2023-03-01T16:19:11;15.30;;;11.57;;
20649;SDS011;10484;48.736;9.332;2023-03-01T16:21:37;14.47;;;10.90;;
20649;SDS011;10484;48.736;9.332;2023-03-01T16:24:03;17.30;;;11.73;;
20649;SDS011;10484;48.736;9.332;2023-03-01T16:26:29;16.33;;;9.83;;
20649;SDS011;10484;48.736;9.332;2023-03-01T16:28:55;16.93;;;12.30;;
20649;SDS011;10484;48.736;9.332;2023-03-01T16:31:21;16.43;;;11.40;;
20649;SDS011;10484;48.736;9.332;2023-03-01T16:33:48;13.90;;;9.87;;
20649;SDS011;10484;48.736;9.332;2023-03-01T16:36:16;16.50;;;11.07;;
20649;SDS011;10484;48.736;9.332;2023-03-01T16:38:43;17.60;;;11.73;;
20649;SDS011;10484;48.736;9.332;2023-03-01T16:41:12;15.53;;;10.90;;